createdAt,value
2023-05-04T00:00:08.307Z,91.40
2023-05-04T00:02:35.159Z,91.60
2023-05-04T00:05:02.288Z,91.60
2023-05-04T00:07:28.916Z,91.90
2023-05-04T00:09:55.587Z,91.70
2023-05-04T00:12:22.174Z,91.90
2023-05-04T00:14:48.956Z,92.20
2023-05-04T00:17:15.841Z,92.20
2023-05-04T00:19:43.966Z,92.00
2023-05-04T00:22:10.627Z,92.70
2023-05-04T00:24:37.377Z,92.50
2023-05-04T00:27:04.285Z,92.60
2023-05-04T00:29:31.360Z,92.80
2023-05-04T00:31:58.142Z,93.30
2023-05-04T00:34:24.947Z,93.30
2023-05-04T00:36:51.616Z,93.50
2023-05-04T00:39:18.225Z,93.40
2023-05-04T00:41:45.679Z,93.40
2023-05-04T00:44:12.596Z,93.30
2023-05-04T00:46:39.389Z,93.60
2023-05-04T00:49:07.316Z,94.10
2023-05-04T00:51:34.751Z,94.40
2023-05-04T00:54:01.508Z,94.20
2023-05-04T00:56:28.987Z,94.20
2023-05-04T00:58:57.837Z,94.80
2023-05-04T01:01:25.350Z,94.90
2023-05-04T01:03:54.357Z,95.00
2023-05-04T01:06:55.356Z,95.30
2023-05-04T01:09:43.142Z,95.60
2023-05-04T01:12:21.504Z,96.20
2023-05-04T01:14:49.946Z,96.10
2023-05-04T01:17:16.641Z,96.40
2023-05-04T01:19:43.246Z,96.70
2023-05-04T01:22:09.881Z,97.00
2023-05-04T01:24:36.575Z,97.20
2023-05-04T01:27:11.318Z,97.00
2023-05-04T01:29:54.624Z,97.80
2023-05-04T01:32:22.817Z,99.00
2023-05-04T01:34:49.720Z,99.60
2023-05-04T01:37:16.399Z,99.90
2023-05-04T01:39:42.951Z,99.90
2023-05-04T01:42:09.679Z,99.90
2023-05-04T01:44:36.414Z,99.90
2023-05-04T01:47:03.138Z,99.90
2023-05-04T01:49:29.792Z,99.90
2023-05-04T01:51:56.410Z,99.90
2023-05-04T01:54:23.047Z,99.90
2023-05-04T01:56:49.804Z,99.90
2023-05-04T01:59:16.408Z,99.90
2023-05-04T02:01:43.007Z,99.90
2023-05-04T02:04:09.972Z,99.90
2023-05-04T02:06:36.727Z,99.90
2023-05-04T02:09:03.802Z,99.90
2023-05-04T02:11:30.516Z,99.90
2023-05-04T02:13:57.133Z,99.90
2023-05-04T02:16:23.907Z,99.90
2023-05-04T02:18:52.288Z,99.90
2023-05-04T02:21:18.996Z,99.90
2023-05-04T02:23:45.605Z,99.90
2023-05-04T02:26:12.216Z,99.90
2023-05-04T02:28:38.822Z,99.90
2023-05-04T02:31:05.481Z,99.90
2023-05-04T02:33:32.058Z,99.90
2023-05-04T02:35:58.638Z,99.90
2023-05-04T02:38:26.870Z,99.90
2023-05-04T02:40:53.491Z,99.90
2023-05-04T02:43:20.080Z,99.90
2023-05-04T02:45:46.750Z,99.90
2023-05-04T02:48:13.358Z,99.90
2023-05-04T02:50:40.069Z,99.90
2023-05-04T02:53:06.626Z,99.90
2023-05-04T02:55:33.450Z,99.90
2023-05-04T02:58:00.066Z,99.90
2023-05-04T03:00:26.712Z,99.90
2023-05-04T03:02:53.540Z,99.90
2023-05-04T03:05:20.510Z,99.90
2023-05-04T03:07:47.131Z,99.90
2023-05-04T03:10:13.789Z,99.90
2023-05-04T03:12:40.939Z,99.90
2023-05-04T03:15:08.237Z,99.90
2023-05-04T03:17:35.040Z,99.90
2023-05-04T03:20:01.899Z,99.90
2023-05-04T03:22:28.669Z,99.90
2023-05-04T03:24:55.527Z,99.90
2023-05-04T03:27:22.172Z,99.90
2023-05-04T03:29:48.863Z,99.90
2023-05-04T03:32:15.906Z,99.90
2023-05-04T03:34:42.720Z,99.90
2023-05-04T03:37:09.417Z,99.90
2023-05-04T03:39:36.046Z,99.90
2023-05-04T03:42:02.703Z,99.90
2023-05-04T03:44:29.583Z,99.90
2023-05-04T03:46:56.382Z,99.90
2023-05-04T03:49:22.992Z,99.90
2023-05-04T03:51:49.604Z,99.90
2023-05-04T03:54:16.239Z,99.90
2023-05-04T03:56:42.892Z,99.90
2023-05-04T03:59:09.489Z,99.90
2023-05-04T04:01:36.097Z,99.90
2023-05-04T04:04:03.091Z,99.90
2023-05-04T04:06:29.854Z,99.90
2023-05-04T04:08:56.572Z,99.90
2023-05-04T04:11:23.184Z,99.90
2023-05-04T04:13:49.778Z,99.90
2023-05-04T04:16:16.531Z,99.90
2023-05-04T04:18:43.136Z,99.90
2023-05-04T04:21:10.414Z,99.90
2023-05-04T04:23:37.082Z,99.90
2023-05-04T04:26:06.083Z,99.90
2023-05-04T04:28:33.516Z,99.90
2023-05-04T04:31:00.997Z,99.90
2023-05-04T04:33:27.643Z,99.90
2023-05-04T04:35:54.296Z,99.90
2023-05-04T04:38:21.339Z,99.90
2023-05-04T04:40:47.928Z,99.90
2023-05-04T04:43:14.875Z,99.90
2023-05-04T04:45:41.480Z,99.90
2023-05-04T04:48:08.096Z,99.90
2023-05-04T04:50:38.583Z,99.90
2023-05-04T04:53:05.251Z,99.90
2023-05-04T04:55:32.457Z,99.90
2023-05-04T04:57:59.074Z,99.90
2023-05-04T05:00:26.324Z,99.90
2023-05-04T05:02:53.666Z,99.90
2023-05-04T05:05:20.386Z,99.90
2023-05-04T05:07:47.568Z,99.90
2023-05-04T05:10:14.476Z,99.90
2023-05-04T05:12:41.490Z,99.90
2023-05-04T05:15:09.243Z,99.90
2023-05-04T05:17:37.485Z,99.90
2023-05-04T05:20:11.742Z,99.90
2023-05-04T05:22:39.097Z,99.90
2023-05-04T05:25:06.983Z,99.90
2023-05-04T05:27:34.597Z,99.90
2023-05-04T05:30:05.770Z,99.90
2023-05-04T05:32:32.996Z,99.90
2023-05-04T05:34:59.671Z,99.90
2023-05-04T05:37:26.289Z,99.90
2023-05-04T05:39:52.965Z,99.90
2023-05-04T05:42:20.142Z,99.90
2023-05-04T05:44:46.754Z,99.90
2023-05-04T05:47:13.375Z,99.90
2023-05-04T05:49:39.992Z,99.90
2023-05-04T05:52:06.841Z,99.90
2023-05-04T05:54:35.005Z,99.90
2023-05-04T05:57:01.737Z,99.90
2023-05-04T05:59:28.483Z,99.90
2023-05-04T06:01:55.269Z,99.90
2023-05-04T06:04:21.897Z,99.90
2023-05-04T06:06:48.561Z,99.90
2023-05-04T06:09:15.190Z,99.90
2023-05-04T06:11:41.809Z,99.90
2023-05-04T06:14:08.763Z,99.90
2023-05-04T06:16:35.662Z,99.90
2023-05-04T06:19:02.390Z,99.90
2023-05-04T06:21:29.027Z,99.90
2023-05-04T06:23:55.721Z,99.90
2023-05-04T06:26:22.803Z,99.90
2023-05-04T06:28:50.000Z,99.90
2023-05-04T06:31:16.704Z,99.90
2023-05-04T06:33:43.369Z,99.90
2023-05-04T06:36:10.120Z,99.90
2023-05-04T06:38:38.796Z,99.90
2023-05-04T06:41:06.177Z,99.90
2023-05-04T06:43:33.058Z,99.90
2023-05-04T06:46:03.344Z,99.90
2023-05-04T06:48:31.696Z,99.90
2023-05-04T06:51:00.203Z,99.90
2023-05-04T06:53:28.404Z,99.90
2023-05-04T06:55:55.070Z,99.90
2023-05-04T06:58:22.017Z,99.90
2023-05-04T07:00:48.899Z,99.90
2023-05-04T07:03:15.731Z,99.90
2023-05-04T07:05:44.593Z,99.90
2023-05-04T07:08:12.413Z,99.90
2023-05-04T07:10:39.444Z,99.90
2023-05-04T07:13:06.598Z,99.90
2023-05-04T07:15:33.938Z,99.90
2023-05-04T07:18:01.374Z,99.40
2023-05-04T07:20:28.409Z,98.80
2023-05-04T07:22:56.903Z,99.00
2023-05-04T07:25:27.544Z,97.90
2023-05-04T07:27:54.411Z,97.90
2023-05-04T07:30:21.532Z,97.00
2023-05-04T07:32:48.444Z,96.20
2023-05-04T07:35:15.294Z,96.20
2023-05-04T07:37:41.990Z,94.60
2023-05-04T07:40:09.550Z,93.70
2023-05-04T07:42:36.465Z,94.20
2023-05-04T07:45:04.161Z,92.70
2023-05-04T07:47:30.831Z,91.60
2023-05-04T07:49:57.496Z,90.80
2023-05-04T07:52:24.083Z,91.20
2023-05-04T07:54:54.336Z,86.30
2023-05-04T07:57:21.748Z,87.20
2023-05-04T07:59:48.516Z,83.60
2023-05-04T08:02:15.203Z,84.20
2023-05-04T08:04:41.887Z,80.50
2023-05-04T08:07:08.545Z,81.10
2023-05-04T08:09:35.311Z,79.20
2023-05-04T08:12:02.487Z,79.90
2023-05-04T08:14:29.106Z,77.70
2023-05-04T08:16:55.776Z,75.80
2023-05-04T08:19:23.059Z,78.40
2023-05-04T08:21:49.672Z,72.60
2023-05-04T08:24:17.619Z,70.90
2023-05-04T08:26:49.540Z,71.60
2023-05-04T08:29:22.899Z,71.50
2023-05-04T08:31:49.656Z,68.80
2023-05-04T08:34:16.525Z,67.50
2023-05-04T08:36:43.125Z,67.70
2023-05-04T08:39:11.924Z,66.60
2023-05-04T08:41:42.047Z,65.90
2023-05-04T08:44:10.890Z,63.40
2023-05-04T08:46:41.414Z,62.60
2023-05-04T08:49:08.184Z,61.50
2023-05-04T08:51:37.094Z,61.30
2023-05-04T08:54:08.614Z,58.70
2023-05-04T08:56:36.580Z,60.00
2023-05-04T08:59:03.818Z,58.90
2023-05-04T09:01:32.775Z,58.50
2023-05-04T09:04:03.032Z,56.90
2023-05-04T09:06:31.272Z,57.50
2023-05-04T09:08:58.098Z,57.00
2023-05-04T09:11:24.810Z,54.80
2023-05-04T09:13:51.542Z,54.80
2023-05-04T09:16:19.430Z,55.10
2023-05-04T09:18:46.534Z,54.90
2023-05-04T09:21:13.412Z,54.20
2023-05-04T09:23:53.605Z,55.20
2023-05-04T09:26:27.885Z,52.80
2023-05-04T09:28:54.661Z,51.90
2023-05-04T09:31:21.338Z,52.10
2023-05-04T09:33:48.032Z,50.40
2023-05-04T09:36:21.944Z,49.50
2023-05-04T09:38:48.893Z,48.90
2023-05-04T09:41:15.984Z,48.00
2023-05-04T09:43:43.987Z,48.90
2023-05-04T09:46:20.341Z,47.00
2023-05-04T09:48:55.660Z,46.80
2023-05-04T09:51:24.272Z,46.20
2023-05-04T09:53:51.978Z,44.40
2023-05-04T09:56:46.038Z,43.50
2023-05-04T09:59:14.007Z,43.30
2023-05-04T10:01:43.358Z,42.70
2023-05-04T10:04:11.738Z,43.70
2023-05-04T10:06:38.578Z,43.00
2023-05-04T10:09:05.932Z,43.10
2023-05-04T10:11:32.732Z,43.30
2023-05-04T10:13:59.581Z,43.00
2023-05-04T10:16:38.690Z,41.70
2023-05-04T10:19:32.348Z,42.90
2023-05-04T10:22:36.280Z,42.50
2023-05-04T10:25:48.283Z,42.00
2023-05-04T10:28:31.679Z,43.30
2023-05-04T10:30:59.143Z,42.50
2023-05-04T10:33:26.742Z,41.60
2023-05-04T10:35:54.431Z,42.70
2023-05-04T10:38:41.406Z,42.80
2023-05-04T10:41:18.604Z,41.50
2023-05-04T10:43:50.972Z,42.00
2023-05-04T10:46:21.477Z,42.50
2023-05-04T10:48:48.632Z,41.80
2023-05-04T10:51:22.992Z,40.80
2023-05-04T10:53:50.718Z,41.10
2023-05-04T10:56:28.143Z,41.10
2023-05-04T10:58:55.563Z,39.80
2023-05-04T11:01:22.944Z,41.00
2023-05-04T11:03:50.541Z,39.80
2023-05-04T11:06:23.248Z,41.20
2023-05-04T11:09:01.483Z,40.40
2023-05-04T11:11:28.287Z,40.20
2023-05-04T11:13:55.223Z,40.20
2023-05-04T11:16:27.256Z,40.00
2023-05-04T11:18:54.823Z,40.50
2023-05-04T11:21:31.847Z,38.60
2023-05-04T11:24:00.037Z,39.50
2023-05-04T11:26:28.203Z,38.60
2023-05-04T11:28:54.977Z,39.50
2023-05-04T11:31:22.000Z,39.80
2023-05-04T11:33:54.515Z,40.00
2023-05-04T11:36:22.555Z,39.70
2023-05-04T11:38:49.790Z,39.40
2023-05-04T11:41:16.607Z,39.10
2023-05-04T11:43:45.364Z,39.50
2023-05-04T11:46:13.059Z,39.30
2023-05-04T11:48:40.878Z,39.30
2023-05-04T11:51:07.659Z,40.60
2023-05-04T11:53:43.651Z,40.60
2023-05-04T11:56:10.389Z,39.20
2023-05-04T11:58:37.233Z,40.10
2023-05-04T12:01:04.221Z,40.60
2023-05-04T12:03:48.631Z,39.70
2023-05-04T12:06:20.061Z,38.80
2023-05-04T12:08:46.873Z,38.70
2023-05-04T12:11:15.980Z,38.90
2023-05-04T12:13:45.340Z,39.20
2023-05-04T12:16:18.230Z,39.30
2023-05-04T12:18:46.123Z,39.10
2023-05-04T12:21:18.896Z,38.20
2023-05-04T12:23:47.078Z,38.20
2023-05-04T12:26:16.270Z,38.10
2023-05-04T12:28:45.287Z,37.60
2023-05-04T12:31:11.997Z,37.80
2023-05-04T12:33:38.809Z,37.30
2023-05-04T12:36:06.719Z,37.00
2023-05-04T12:38:34.179Z,37.40
2023-05-04T12:41:03.204Z,36.60
2023-05-04T12:43:31.182Z,36.30
2023-05-04T12:45:58.056Z,36.30
2023-05-04T12:48:26.951Z,35.80
2023-05-04T12:50:53.665Z,36.00
2023-05-04T12:53:22.362Z,34.90
2023-05-04T12:55:49.158Z,35.50
2023-05-04T12:58:15.862Z,35.80
2023-05-04T13:00:45.734Z,35.00
2023-05-04T13:03:13.148Z,34.90
2023-05-04T13:05:40.471Z,35.60
2023-05-04T13:08:07.274Z,33.80
2023-05-04T13:10:34.008Z,34.30
2023-05-04T13:13:01.037Z,34.80
2023-05-04T13:15:28.088Z,34.00
2023-05-04T13:17:54.878Z,33.10
2023-05-04T13:20:22.732Z,33.60
2023-05-04T13:22:50.523Z,34.20
2023-05-04T13:25:17.316Z,33.40
2023-05-04T13:27:44.113Z,33.90
2023-05-04T13:30:11.846Z,34.10
2023-05-04T13:32:38.731Z,34.00
2023-05-04T13:35:06.503Z,34.20
2023-05-04T13:37:33.901Z,33.20
2023-05-04T13:40:01.757Z,33.40
2023-05-04T13:42:28.467Z,33.70
2023-05-04T13:44:55.296Z,33.20
2023-05-04T13:47:23.771Z,33.80
2023-05-04T13:49:50.731Z,33.20
2023-05-04T13:52:17.447Z,33.70
2023-05-04T13:54:44.817Z,33.60
2023-05-04T13:57:11.469Z,33.00
2023-05-04T13:59:38.182Z,33.00
2023-05-04T14:02:08.744Z,32.60
2023-05-04T14:04:39.105Z,33.70
2023-05-04T14:07:08.346Z,32.60
2023-05-04T14:09:35.211Z,31.60
2023-05-04T14:12:02.742Z,31.20
2023-05-04T14:14:29.696Z,31.80
2023-05-04T14:16:56.379Z,31.80
2023-05-04T14:19:25.404Z,32.50
2023-05-04T14:21:52.516Z,31.80
2023-05-04T14:24:19.426Z,32.00
2023-05-04T14:26:46.431Z,31.90
2023-05-04T14:29:13.060Z,31.30
2023-05-04T14:31:39.782Z,31.20
2023-05-04T14:34:06.807Z,31.30
2023-05-04T14:36:36.626Z,31.30
2023-05-04T14:39:03.592Z,32.30
2023-05-04T14:41:34.889Z,31.20
2023-05-04T14:44:01.668Z,31.30
2023-05-04T14:46:29.519Z,31.30
2023-05-04T14:48:56.559Z,31.50
2023-05-04T14:51:24.349Z,31.90
2023-05-04T14:53:51.494Z,31.00
2023-05-04T14:56:18.327Z,31.00
2023-05-04T14:58:45.486Z,31.10
2023-05-04T15:01:12.297Z,31.40
2023-05-04T15:03:39.641Z,31.60
2023-05-04T15:06:08.358Z,31.00
2023-05-04T15:08:34.957Z,31.30
2023-05-04T15:11:01.661Z,31.20
2023-05-04T15:13:28.512Z,31.60
2023-05-04T15:15:55.140Z,31.40
2023-05-04T15:18:23.906Z,30.70
2023-05-04T15:20:50.757Z,30.50
2023-05-04T15:23:17.439Z,30.30
2023-05-04T15:25:44.129Z,30.80
2023-05-04T15:28:11.692Z,30.70
2023-05-04T15:30:40.777Z,31.80
2023-05-04T15:33:08.087Z,30.70
2023-05-04T15:35:36.437Z,30.90
2023-05-04T15:38:03.683Z,31.00
2023-05-04T15:40:31.358Z,31.60
2023-05-04T15:42:58.105Z,31.80
2023-05-04T15:45:24.886Z,32.20
2023-05-04T15:47:53.542Z,31.50
2023-05-04T15:50:21.237Z,31.70
2023-05-04T15:52:48.112Z,32.10
2023-05-04T15:55:25.144Z,32.30
2023-05-04T15:57:53.106Z,32.60
2023-05-04T16:00:20.897Z,32.20
2023-05-04T16:02:47.695Z,32.20
2023-05-04T16:05:14.440Z,32.50
2023-05-04T16:07:41.355Z,32.60
2023-05-04T16:10:09.111Z,32.40
2023-05-04T16:12:36.298Z,32.50
2023-05-04T16:15:03.258Z,31.70
2023-05-04T16:17:34.880Z,33.20
2023-05-04T16:20:02.674Z,32.90
2023-05-04T16:22:29.478Z,32.40
2023-05-04T16:24:56.260Z,33.10
2023-05-04T16:27:29.000Z,32.30
2023-05-04T16:29:55.919Z,32.60
2023-05-04T16:32:23.217Z,32.50
2023-05-04T16:34:49.946Z,32.90
2023-05-04T16:37:18.456Z,32.60
2023-05-04T16:39:45.424Z,33.00
2023-05-04T16:42:12.587Z,32.50
2023-05-04T16:44:39.330Z,32.60
2023-05-04T16:47:06.951Z,32.70
2023-05-04T16:49:33.993Z,32.40
2023-05-04T16:52:02.159Z,32.90
2023-05-04T16:54:28.849Z,32.90
2023-05-04T16:56:55.628Z,33.20
2023-05-04T16:59:22.684Z,33.20
2023-05-04T17:01:49.405Z,33.50
2023-05-04T17:04:16.260Z,34.10
2023-05-04T17:06:43.080Z,35.00
2023-05-04T17:09:10.607Z,34.20
2023-05-04T17:11:37.692Z,34.40
2023-05-04T17:14:04.441Z,34.60
2023-05-04T17:16:31.169Z,34.40
2023-05-04T17:18:57.920Z,34.60
2023-05-04T17:21:24.523Z,34.90
2023-05-04T17:23:51.371Z,35.30
2023-05-04T17:26:18.022Z,35.70
2023-05-04T17:28:44.694Z,35.30
2023-05-04T17:31:15.039Z,35.60
2023-05-04T17:33:41.724Z,36.00
2023-05-04T17:36:11.668Z,36.10
2023-05-04T17:38:39.213Z,36.20
2023-05-04T17:41:06.091Z,36.40
2023-05-04T17:43:34.008Z,36.70
2023-05-04T17:46:01.983Z,36.70
2023-05-04T17:48:31.231Z,37.30
2023-05-04T17:50:58.892Z,37.30
2023-05-04T17:53:28.736Z,37.60
2023-05-04T17:55:55.494Z,37.60
2023-05-04T17:58:23.858Z,37.30
2023-05-04T18:00:52.874Z,37.30
2023-05-04T18:03:20.167Z,37.80
2023-05-04T18:05:47.259Z,37.70
2023-05-04T18:08:14.088Z,37.90
2023-05-04T18:10:41.223Z,38.20
2023-05-04T18:13:08.065Z,38.50
2023-05-04T18:15:34.882Z,38.20
2023-05-04T18:18:01.795Z,38.60
2023-05-04T18:20:28.540Z,39.10
2023-05-04T18:22:55.781Z,39.50
2023-05-04T18:25:22.996Z,40.00
2023-05-04T18:27:49.766Z,39.00
2023-05-04T18:30:16.562Z,39.20
2023-05-04T18:32:43.357Z,39.20
2023-05-04T18:35:10.308Z,39.70
2023-05-04T18:37:36.940Z,39.70
2023-05-04T18:40:04.737Z,41.10
2023-05-04T18:42:31.933Z,40.60
2023-05-04T18:44:58.630Z,40.80
2023-05-04T18:47:25.445Z,40.70
2023-05-04T18:49:54.418Z,40.80
2023-05-04T18:52:21.815Z,40.60
2023-05-04T18:54:49.484Z,40.70
2023-05-04T18:57:16.666Z,40.80
2023-05-04T18:59:43.540Z,41.00
2023-05-04T19:02:10.552Z,41.10
2023-05-04T19:04:37.222Z,41.10
2023-05-04T19:07:04.052Z,41.60
2023-05-04T19:09:31.654Z,41.70
2023-05-04T19:11:58.780Z,42.10
2023-05-04T19:14:28.863Z,42.50
2023-05-04T19:16:57.847Z,42.80
2023-05-04T19:19:25.928Z,42.90
2023-05-04T19:21:52.595Z,42.50
2023-05-04T19:24:19.686Z,42.90
2023-05-04T19:26:46.509Z,43.30
2023-05-04T19:29:13.705Z,43.40
2023-05-04T19:31:40.773Z,44.00
2023-05-04T19:34:07.590Z,43.50
2023-05-04T19:36:34.325Z,43.70
2023-05-04T19:39:00.997Z,44.00
2023-05-04T19:41:27.627Z,44.70
2023-05-04T19:43:54.307Z,44.40
2023-05-04T19:46:21.235Z,45.00
2023-05-04T19:48:47.931Z,45.20
2023-05-04T19:51:14.622Z,45.50
2023-05-04T19:53:41.357Z,45.80
2023-05-04T19:56:08.208Z,46.20
2023-05-04T19:58:34.896Z,45.50
2023-05-04T20:01:01.768Z,45.40
2023-05-04T20:03:28.499Z,46.10
2023-05-04T20:05:55.629Z,45.60
2023-05-04T20:08:22.258Z,46.40
2023-05-04T20:10:48.917Z,46.30
2023-05-04T20:13:15.741Z,45.90
2023-05-04T20:15:42.718Z,46.40
2023-05-04T20:18:09.488Z,46.60
2023-05-04T20:20:36.189Z,46.70
2023-05-04T20:23:03.163Z,46.60
2023-05-04T20:25:29.947Z,46.70
2023-05-04T20:27:56.580Z,46.70
2023-05-04T20:30:23.260Z,47.40
2023-05-04T20:32:50.025Z,47.70
2023-05-04T20:35:17.198Z,47.90
2023-05-04T20:37:44.301Z,48.00
2023-05-04T20:40:12.094Z,48.00
2023-05-04T20:42:39.152Z,48.20
2023-05-04T20:45:06.508Z,48.60
2023-05-04T20:47:33.279Z,48.20
2023-05-04T20:49:59.889Z,48.30
2023-05-04T20:52:26.886Z,48.50
2023-05-04T20:54:54.676Z,48.80
2023-05-04T20:57:21.400Z,49.30
2023-05-04T20:59:48.044Z,49.40
2023-05-04T21:02:14.677Z,49.00
2023-05-04T21:04:43.278Z,49.30
2023-05-04T21:07:09.991Z,49.60
2023-05-04T21:09:36.649Z,49.40
2023-05-04T21:12:03.410Z,49.60
2023-05-04T21:14:30.115Z,49.60
2023-05-04T21:16:56.820Z,50.30
2023-05-04T21:19:23.552Z,49.60
2023-05-04T21:21:50.318Z,50.10
2023-05-04T21:24:17.186Z,50.20
2023-05-04T21:26:44.965Z,50.40
2023-05-04T21:29:12.964Z,50.80
2023-05-04T21:31:39.699Z,50.60
2023-05-04T21:34:06.515Z,50.40
2023-05-04T21:36:33.229Z,50.80
2023-05-04T21:39:00.182Z,50.40
2023-05-04T21:41:26.850Z,50.60
2023-05-04T21:43:53.518Z,50.90
2023-05-04T21:46:20.209Z,51.10
2023-05-04T21:48:46.889Z,51.60
2023-05-04T21:51:13.476Z,51.50
2023-05-04T21:53:43.365Z,52.40
2023-05-04T21:56:10.972Z,51.80
2023-05-04T21:58:40.323Z,51.90
2023-05-04T22:01:08.140Z,51.70
2023-05-04T22:03:35.419Z,52.30
2023-05-04T22:06:02.348Z,51.90
2023-05-04T22:08:29.749Z,52.40
2023-05-04T22:10:57.571Z,53.10
2023-05-04T22:13:25.418Z,52.70
2023-05-04T22:15:53.155Z,52.70
2023-05-04T22:18:20.537Z,54.30
2023-05-04T22:20:47.462Z,54.00
